PWSweather.com
Personal Weather Stations
Station Observations

PoschiavoCH

Lat: 46.31962499999999, Lon: 10.066551000000004

Elevation: 3517

Station Type: WH 1080

http://www.meteoposchiavo.com

High Low Average
Temperature 54.0°F12.2°C 29.0°F-1.7°C 39.2°F4.0°C
Dew Point 15.7°F-9.1°C 8.9°F-12.8°C 12.5°F-10.8°C
Winds 3.5 mph 5.6 kmh Calm Calm Calm ECalm E
Wind Gusts 6.9 mph11.1 kmh -- 1.0 mph1.6 kmh
Humidity 57% 19% 34%
Pressure 26.86 in909.6 mb 26.63 in901.8 mb -
Precipitation 0.00 in0.0 mm - -
Hour Temp Dew Point Humidity Winds Wind Gusts Pressure Precip Precip Rate Daily Precip Total
12:00 AM 35.0°F1.7°C 10.1°F-12.2°C 35% Calm Calm -- 26.66 in902.8 mb - 0.00 in0.0 mm 0.00 in0.0 mm
12:10 AM 35.0°F1.7°C 10.1°F-12.2°C 35% Calm Calm -- 26.67 in903.2 mb - 0.00 in0.0 mm 0.00 in0.0 mm
12:15 AM 35.0°F1.7°C 11.9°F-11.2°C 38% 1.2 mph NE1.9 kmh NE 1.2 mph1.9 kmh 26.67 in903.2 mb - 0.00 in0.0 mm 0.00 in0.0 mm
12:20 AM 34.0°F1.1°C 10.4°F-12.0°C 37% Calm Calm 1.2 mph1.9 kmh 26.67 in903.2 mb - 0.00 in0.0 mm 0.00 in0.0 mm
12:25 AM 35.0°F1.7°C 10.7°F-11.8°C 36% Calm Calm -- 26.67 in903.2 mb - 0.00 in0.0 mm 0.00 in0.0 mm
12:30 AM 34.0°F1.1°C 12.2°F-11.0°C 40% Calm Calm -- 26.67 in903.2 mb - 0.00 in0.0 mm 0.00 in0.0 mm
12:35 AM 34.0°F1.1°C 12.7°F-10.7°C 41% Calm Calm -- 26.66 in902.8 mb - 0.00 in0.0 mm 0.00 in0.0 mm
12:40 AM 33.9°F1.1°C 12.7°F-10.7°C 41% Calm Calm -- 26.66 in902.8 mb - 0.00 in0.0 mm 0.00 in0.0 mm
12:45 AM 33.0°F0.6°C 13.4°F-10.3°C 44% Calm Calm -- 26.67 in903.2 mb - 0.00 in0.0 mm 0.00 in0.0 mm
12:50 AM 33.0°F0.6°C 12.4°F-10.9°C 42% Calm Calm -- 26.67 in903.2 mb - 0.00 in0.0 mm 0.00 in0.0 mm
12:55 AM 33.0°F0.6°C 11.8°F-11.2°C 41% Calm Calm -- 26.67 in903.2 mb - 0.00 in0.0 mm 0.00 in0.0 mm
01:00 AM 33.0°F0.6°C 11.8°F-11.2°C 41% Calm Calm -- 26.67 in903.2 mb - 0.00 in0.0 mm 0.00 in0.0 mm
01:10 AM 33.0°F0.6°C 12.9°F-10.6°C 43% Calm Calm -- 26.67 in903.2 mb - 0.00 in0.0 mm 0.00 in0.0 mm
01:15 AM 33.0°F0.6°C 12.9°F-10.6°C 43% Calm Calm -- 26.68 in903.5 mb - 0.00 in0.0 mm 0.00 in0.0 mm
01:20 AM 32.2°F0.1°C 12.7°F-10.7°C 44% Calm Calm -- 26.68 in903.5 mb - 0.00 in0.0 mm 0.00 in0.0 mm
01:25 AM 32.0°F0.0°C 12.5°F-10.8°C 44% Calm Calm -- 26.68 in903.5 mb - 0.00 in0.0 mm 0.00 in0.0 mm
01:30 AM 33.0°F0.6°C 12.9°F-10.6°C 43% Calm Calm -- 26.68 in903.5 mb - 0.00 in0.0 mm 0.00 in0.0 mm
01:35 AM 33.0°F0.6°C 12.9°F-10.6°C 43% Calm Calm -- 26.68 in903.5 mb - 0.00 in0.0 mm 0.00 in0.0 mm
01:40 AM 33.0°F0.6°C 13.9°F-10.1°C 45% Calm Calm -- 26.68 in903.5 mb - 0.00 in0.0 mm 0.00 in0.0 mm
01:45 AM 33.0°F0.6°C 12.9°F-10.6°C 43% Calm Calm -- 26.68 in903.5 mb - 0.00 in0.0 mm 0.00 in0.0 mm
01:50 AM 33.0°F0.6°C 12.9°F-10.6°C 43% Calm Calm -- 26.68 in903.5 mb - 0.00 in0.0 mm 0.00 in0.0 mm
01:55 AM 33.0°F0.6°C 11.8°F-11.2°C 41% Calm Calm -- 26.68 in903.5 mb - 0.00 in0.0 mm 0.00 in0.0 mm
02:00 AM 33.0°F0.6°C 13.9°F-10.1°C 45% Calm Calm -- 26.68 in903.5 mb - 0.00 in0.0 mm 0.00 in0.0 mm
02:10 AM 32.0°F0.0°C 13.0°F-10.6°C 45% Calm Calm -- 26.68 in903.5 mb - 0.00 in0.0 mm 0.00 in0.0 mm
02:15 AM 32.0°F0.0°C 13.0°F-10.6°C 45% Calm Calm -- 26.68 in903.5 mb - 0.00 in0.0 mm 0.00 in0.0 mm
02:20 AM 32.0°F0.0°C 11.5°F-11.4°C 42% Calm Calm -- 26.68 in903.5 mb - 0.00 in0.0 mm 0.00 in0.0 mm
02:25 AM 32.0°F0.0°C 12.5°F-10.8°C 44% Calm Calm -- 26.68 in903.5 mb - 0.00 in0.0 mm 0.00 in0.0 mm
02:30 AM 33.0°F0.6°C 12.9°F-10.6°C 43% 1.2 mph N1.9 kmh N 1.2 mph1.9 kmh 26.68 in903.5 mb - 0.00 in0.0 mm 0.00 in0.0 mm
02:35 AM 33.0°F0.6°C 10.7°F-11.8°C 39% 1.2 mph NW1.9 kmh NW 1.2 mph1.9 kmh 26.68 in903.5 mb - 0.00 in0.0 mm 0.00 in0.0 mm
02:40 AM 33.0°F0.6°C 11.3°F-11.5°C 40% Calm Calm 1.2 mph1.9 kmh 26.67 in903.2 mb - 0.00 in0.0 mm 0.00 in0.0 mm
02:45 AM 33.0°F0.6°C 11.8°F-11.2°C 41% Calm Calm 1.2 mph1.9 kmh 26.68 in903.5 mb - 0.00 in0.0 mm 0.00 in0.0 mm
02:50 AM 33.0°F0.6°C 12.4°F-10.9°C 42% Calm Calm -- 26.68 in903.5 mb - 0.00 in0.0 mm 0.00 in0.0 mm
02:55 AM 33.0°F0.6°C 11.8°F-11.2°C 41% 1.2 mph NNE1.9 kmh NNE 1.2 mph1.9 kmh 26.68 in903.5 mb - 0.00 in0.0 mm 0.00 in0.0 mm
03:00 AM 33.0°F0.6°C 11.3°F-11.5°C 40% Calm Calm 1.2 mph1.9 kmh 26.68 in903.5 mb - 0.00 in0.0 mm 0.00 in0.0 mm
03:10 AM 33.0°F0.6°C 11.8°F-11.2°C 41% Calm Calm 1.2 mph1.9 kmh 26.68 in903.5 mb - 0.00 in0.0 mm 0.00 in0.0 mm
03:15 AM 33.0°F0.6°C 10.1°F-12.2°C 38% Calm Calm -- 26.67 in903.2 mb - 0.00 in0.0 mm 0.00 in0.0 mm
03:20 AM 33.0°F0.6°C 10.1°F-12.2°C 38% Calm Calm -- 26.67 in903.2 mb - 0.00 in0.0 mm 0.00 in0.0 mm
03:25 AM 33.0°F0.6°C 10.1°F-12.2°C 38% Calm Calm -- 26.67 in903.2 mb - 0.00 in0.0 mm 0.00 in0.0 mm
03:30 AM 33.0°F0.6°C 11.8°F-11.2°C 41% Calm Calm -- 26.68 in903.5 mb - 0.00 in0.0 mm 0.00 in0.0 mm
03:35 AM 33.0°F0.6°C 10.1°F-12.2°C 38% Calm Calm -- 26.68 in903.5 mb - 0.00 in0.0 mm 0.00 in0.0 mm
03:40 AM 33.0°F0.6°C 10.7°F-11.8°C 39% Calm Calm -- 26.68 in903.5 mb - 0.00 in0.0 mm 0.00 in0.0 mm
03:45 AM 33.0°F0.6°C 10.1°F-12.2°C 38% Calm Calm -- 26.68 in903.5 mb - 0.00 in0.0 mm 0.00 in0.0 mm
03:50 AM 33.0°F0.6°C 9.5°F-12.5°C 37% Calm Calm -- 26.68 in903.5 mb - 0.00 in0.0 mm 0.00 in0.0 mm
03:55 AM 33.0°F0.6°C 8.9°F-12.8°C 36% Calm Calm -- 26.67 in903.2 mb - 0.00 in0.0 mm 0.00 in0.0 mm
04:00 AM 33.0°F0.6°C 10.1°F-12.2°C 38% Calm Calm 1.2 mph1.9 kmh 26.67 in903.2 mb - 0.00 in0.0 mm 0.00 in0.0 mm
04:10 AM 34.0°F1.1°C 12.7°F-10.7°C 41% Calm Calm -- 26.67 in903.2 mb - 0.00 in0.0 mm 0.00 in0.0 mm
04:15 AM 33.0°F0.6°C 9.5°F-12.5°C 37% Calm Calm -- 26.67 in903.2 mb - 0.00 in0.0 mm 0.00 in0.0 mm
04:20 AM 33.0°F0.6°C 11.8°F-11.2°C 41% Calm Calm -- 26.67 in903.2 mb - 0.00 in0.0 mm 0.00 in0.0 mm
04:25 AM 32.0°F0.0°C 12.5°F-10.8°C 44% Calm Calm -- 26.68 in903.5 mb - 0.00 in0.0 mm 0.00 in0.0 mm
04:30 AM 32.0°F0.0°C 10.9°F-11.7°C 41% Calm Calm -- 26.67 in903.2 mb - 0.00 in0.0 mm 0.00 in0.0 mm
04:35 AM 32.0°F0.0°C 12.5°F-10.8°C 44% Calm Calm -- 26.68 in903.5 mb - 0.00 in0.0 mm 0.00 in0.0 mm
04:40 AM 32.0°F0.0°C 11.5°F-11.4°C 42% Calm Calm 2.3 mph3.7 kmh 26.68 in903.5 mb - 0.00 in0.0 mm 0.00 in0.0 mm
04:45 AM 32.0°F0.0°C 9.8°F-12.3°C 39% 1.2 mph NNE1.9 kmh NNE 2.3 mph3.7 kmh 26.68 in903.5 mb - 0.00 in0.0 mm 0.00 in0.0 mm
04:50 AM 33.0°F0.6°C 8.9°F-12.8°C 36% Calm Calm -- 26.68 in903.5 mb - 0.00 in0.0 mm 0.00 in0.0 mm
04:55 AM 33.0°F0.6°C 11.8°F-11.2°C 41% Calm Calm -- 26.68 in903.5 mb - 0.00 in0.0 mm 0.00 in0.0 mm
05:00 AM 33.0°F0.6°C 9.5°F-12.5°C 37% Calm Calm -- 26.67 in903.2 mb - 0.00 in0.0 mm 0.00 in0.0 mm
05:10 AM 33.0°F0.6°C 10.1°F-12.2°C 38% Calm Calm -- 26.67 in903.2 mb - 0.00 in0.0 mm 0.00 in0.0 mm
05:15 AM 33.0°F0.6°C 10.1°F-12.2°C 38% 2.3 mph NE3.7 kmh NE 2.3 mph3.7 kmh 26.68 in903.5 mb - 0.00 in0.0 mm 0.00 in0.0 mm
05:20 AM 33.0°F0.6°C 10.1°F-12.2°C 38% Calm Calm -- 26.68 in903.5 mb - 0.00 in0.0 mm 0.00 in0.0 mm
05:25 AM 33.0°F0.6°C 11.3°F-11.5°C 40% Calm Calm -- 26.68 in903.5 mb - 0.00 in0.0 mm 0.00 in0.0 mm
05:30 AM 33.0°F0.6°C 10.1°F-12.2°C 38% Calm Calm 1.2 mph1.9 kmh 26.68 in903.5 mb - 0.00 in0.0 mm 0.00 in0.0 mm
05:35 AM 33.0°F0.6°C 8.9°F-12.8°C 36% 1.2 mph NE1.9 kmh NE 1.2 mph1.9 kmh 26.68 in903.5 mb - 0.00 in0.0 mm 0.00 in0.0 mm
05:40 AM 33.0°F0.6°C 11.8°F-11.2°C 41% Calm Calm -- 26.68 in903.5 mb - 0.00 in0.0 mm 0.00 in0.0 mm
05:45 AM 32.0°F0.0°C 9.2°F-12.7°C 38% Calm Calm -- 26.69 in903.8 mb - 0.00 in0.0 mm 0.00 in0.0 mm
05:50 AM 32.0°F0.0°C 10.9°F-11.7°C 41% Calm Calm -- 26.68 in903.5 mb - 0.00 in0.0 mm 0.00 in0.0 mm
05:55 AM 31.0°F-0.6°C 11.1°F-11.6°C 43% Calm Calm -- 26.68 in903.5 mb - 0.00 in0.0 mm 0.00 in0.0 mm
06:00 AM 30.0°F-1.1°C 11.2°F-11.6°C 45% Calm Calm -- 26.67 in903.2 mb - 0.00 in0.0 mm 0.00 in0.0 mm
06:10 AM 30.0°F-1.1°C 11.2°F-11.6°C 45% Calm Calm -- 26.69 in903.8 mb - 0.00 in0.0 mm 0.00 in0.0 mm
06:15 AM 30.0°F-1.1°C 11.7°F-11.3°C 46% Calm Calm -- 26.70 in904.2 mb - 0.00 in0.0 mm 0.00 in0.0 mm
06:20 AM 30.0°F-1.1°C 12.2°F-11.0°C 47% Calm Calm -- 26.70 in904.2 mb - 0.00 in0.0 mm 0.00 in0.0 mm
06:25 AM 30.0°F-1.1°C 11.7°F-11.3°C 46% Calm Calm -- 26.69 in903.8 mb - 0.00 in0.0 mm 0.00 in0.0 mm
06:30 AM 30.0°F-1.1°C 11.7°F-11.3°C 46% Calm Calm -- 26.70 in904.2 mb - 0.00 in0.0 mm 0.00 in0.0 mm
06:35 AM 30.0°F-1.1°C 11.7°F-11.3°C 46% Calm Calm -- 26.70 in904.2 mb - 0.00 in0.0 mm 0.00 in0.0 mm
06:40 AM 29.0°F-1.7°C 11.7°F-11.3°C 48% 1.2 mph NE1.9 kmh NE 2.3 mph3.7 kmh 26.70 in904.2 mb - 0.00 in0.0 mm 0.00 in0.0 mm
06:45 AM 30.0°F-1.1°C 13.6°F-10.2°C 50% Calm Calm -- 26.70 in904.2 mb - 0.00 in0.0 mm 0.00 in0.0 mm
06:50 AM 30.0°F-1.1°C 13.1°F-10.5°C 49% Calm Calm -- 26.70 in904.2 mb - 0.00 in0.0 mm 0.00 in0.0 mm
06:55 AM 30.0°F-1.1°C 12.7°F-10.7°C 48% Calm Calm -- 26.70 in904.2 mb - 0.00 in0.0 mm 0.00 in0.0 mm
07:00 AM 30.2°F-1.0°C 12.3°F-10.9°C 47% Calm Calm -- 26.70 in904.2 mb - 0.00 in0.0 mm 0.00 in0.0 mm
07:10 AM 31.0°F-0.6°C 11.1°F-11.6°C 43% Calm Calm 1.2 mph1.9 kmh 26.70 in904.2 mb - 0.00 in0.0 mm 0.00 in0.0 mm
07:15 AM 31.0°F-0.6°C 12.1°F-11.1°C 45% Calm Calm -- 26.71 in904.5 mb - 0.00 in0.0 mm 0.00 in0.0 mm
07:20 AM 30.0°F-1.1°C 13.6°F-10.2°C 50% Calm Calm -- 26.71 in904.5 mb - 0.00 in0.0 mm 0.00 in0.0 mm
07:25 AM 30.0°F-1.1°C 13.1°F-10.5°C 49% Calm Calm -- 26.72 in904.8 mb - 0.00 in0.0 mm 0.00 in0.0 mm
07:30 AM 30.0°F-1.1°C 14.0°F-10.0°C 51% Calm Calm 1.2 mph1.9 kmh 26.72 in904.8 mb - 0.00 in0.0 mm 0.00 in0.0 mm
07:35 AM 31.0°F-0.6°C 11.6°F-11.3°C 44% Calm Calm 1.2 mph1.9 kmh 26.71 in904.5 mb - 0.00 in0.0 mm 0.00 in0.0 mm
07:40 AM 31.0°F-0.6°C 12.1°F-11.1°C 45% Calm Calm -- 26.71 in904.5 mb - 0.00 in0.0 mm 0.00 in0.0 mm
07:45 AM 31.0°F-0.6°C 12.6°F-10.8°C 46% Calm Calm -- 26.71 in904.5 mb - 0.00 in0.0 mm 0.00 in0.0 mm
07:50 AM 31.0°F-0.6°C 12.6°F-10.8°C 46% Calm Calm -- 26.72 in904.8 mb - 0.00 in0.0 mm 0.00 in0.0 mm
07:55 AM 31.0°F-0.6°C 15.0°F-9.4°C 51% Calm Calm -- 26.72 in904.8 mb - 0.00 in0.0 mm 0.00 in0.0 mm
08:00 AM 30.0°F-1.1°C 14.9°F-9.5°C 53% Calm Calm -- 26.72 in904.8 mb - 0.00 in0.0 mm 0.00 in0.0 mm
08:10 AM 29.0°F-1.7°C 14.8°F-9.6°C 55% Calm Calm -- 26.72 in904.8 mb - 0.00 in0.0 mm 0.00 in0.0 mm
08:15 AM 29.0°F-1.7°C 15.7°F-9.1°C 57% Calm Calm -- 26.72 in904.8 mb - 0.00 in0.0 mm 0.00 in0.0 mm
08:20 AM 29.0°F-1.7°C 14.4°F-9.8°C 54% Calm Calm -- 26.73 in905.2 mb - 0.00 in0.0 mm 0.00 in0.0 mm
08:25 AM 29.0°F-1.7°C 13.6°F-10.2°C 52% Calm Calm -- 26.73 in905.2 mb - 0.00 in0.0 mm 0.00 in0.0 mm
08:30 AM 30.0°F-1.1°C 12.2°F-11.0°C 47% Calm Calm -- 26.72 in904.8 mb - 0.00 in0.0 mm 0.00 in0.0 mm
08:35 AM 31.0°F-0.6°C 12.6°F-10.8°C 46% Calm Calm -- 26.72 in904.8 mb - 0.00 in0.0 mm 0.00 in0.0 mm
08:40 AM 32.0°F0.0°C 14.5°F-9.7°C 48% Calm Calm -- 26.72 in904.8 mb - 0.00 in0.0 mm 0.00 in0.0 mm
08:45 AM 33.0°F0.6°C 14.9°F-9.5°C 47% Calm Calm -- 26.72 in904.8 mb - 0.00 in0.0 mm 0.00 in0.0 mm
08:50 AM 33.0°F0.6°C 13.9°F-10.1°C 45% Calm Calm -- 26.72 in904.8 mb - 0.00 in0.0 mm 0.00 in0.0 mm
08:55 AM 35.0°F1.7°C 11.3°F-11.5°C 37% Calm Calm -- 26.72 in904.8 mb - 0.00 in0.0 mm 0.00 in0.0 mm
09:00 AM 36.0°F2.2°C 12.8°F-10.7°C 38% Calm Calm -- 26.72 in904.8 mb - 0.00 in0.0 mm 0.00 in0.0 mm
09:10 AM 37.0°F2.8°C 11.2°F-11.6°C 34% Calm Calm 1.2 mph1.9 kmh 26.71 in904.5 mb - 0.00 in0.0 mm 0.00 in0.0 mm
09:15 AM 38.0°F3.3°C 12.1°F-11.1°C 34% Calm Calm -- 26.71 in904.5 mb - 0.00 in0.0 mm 0.00 in0.0 mm
09:20 AM 38.0°F3.3°C 10.7°F-11.8°C 32% Calm Calm -- 26.71 in904.5 mb - 0.00 in0.0 mm 0.00 in0.0 mm
09:25 AM 38.0°F3.3°C 10.7°F-11.8°C 32% Calm Calm -- 26.70 in904.2 mb - 0.00 in0.0 mm 0.00 in0.0 mm
09:30 AM 38.0°F3.3°C 10.0°F-12.2°C 31% 1.2 mph NW1.9 kmh NW 1.2 mph1.9 kmh 26.71 in904.5 mb - 0.00 in0.0 mm 0.00 in0.0 mm
09:35 AM 39.0°F3.9°C 10.1°F-12.2°C 30% Calm Calm -- 26.70 in904.2 mb - 0.00 in0.0 mm 0.00 in0.0 mm
09:40 AM 39.0°F3.9°C 10.1°F-12.2°C 30% 2.3 mph SW3.7 kmh SW 3.5 mph5.6 kmh 26.71 in904.5 mb - 0.00 in0.0 mm 0.00 in0.0 mm
09:45 AM 39.7°F4.3°C 10.7°F-11.8°C 30% 1.2 mph SSW1.9 kmh SSW 3.5 mph5.6 kmh 26.71 in904.5 mb - 0.00 in0.0 mm 0.00 in0.0 mm
09:50 AM 40.0°F4.4°C 11.0°F-11.7°C 30% 1.2 mph NE1.9 kmh NE 2.3 mph3.7 kmh 26.71 in904.5 mb - 0.00 in0.0 mm 0.00 in0.0 mm
09:55 AM 40.0°F4.4°C 10.3°F-12.1°C 29% 2.3 mph NW3.7 kmh NW 2.3 mph3.7 kmh 26.70 in904.2 mb - 0.00 in0.0 mm 0.00 in0.0 mm
10:00 AM 40.0°F4.4°C 10.3°F-12.1°C 29% 1.2 mph NNW1.9 kmh NNW 1.2 mph1.9 kmh 26.71 in904.5 mb - 0.00 in0.0 mm 0.00 in0.0 mm
10:10 AM 41.0°F5.0°C 11.1°F-11.6°C 29% Calm Calm 1.2 mph1.9 kmh 26.70 in904.2 mb - 0.00 in0.0 mm 0.00 in0.0 mm
10:15 AM 39.0°F3.9°C 10.1°F-12.2°C 30% 2.3 mph SW3.7 kmh SW 3.5 mph5.6 kmh 26.71 in904.5 mb - 0.00 in0.0 mm 0.00 in0.0 mm
10:20 AM 41.0°F5.0°C 11.1°F-11.6°C 29% 1.2 mph NE1.9 kmh NE 1.2 mph1.9 kmh 26.70 in904.2 mb - 0.00 in0.0 mm 0.00 in0.0 mm
10:25 AM 42.0°F5.6°C 11.2°F-11.6°C 28% 1.2 mph SW1.9 kmh SW 2.3 mph3.7 kmh 26.70 in904.2 mb - 0.00 in0.0 mm 0.00 in0.0 mm
10:30 AM 43.1°F6.2°C 11.3°F-11.5°C 27% 1.2 mph SW1.9 kmh SW 2.3 mph3.7 kmh 26.70 in904.2 mb - 0.00 in0.0 mm 0.00 in0.0 mm
10:35 AM 45.0°F7.2°C 12.1°F-11.1°C 26% Calm Calm 1.2 mph1.9 kmh 26.70 in904.2 mb - 0.00 in0.0 mm 0.00 in0.0 mm
10:40 AM 48.0°F8.9°C 11.9°F-11.2°C 23% Calm Calm 1.2 mph1.9 kmh 26.70 in904.2 mb - 0.00 in0.0 mm 0.00 in0.0 mm
10:45 AM 48.0°F8.9°C 11.9°F-11.2°C 23% 2.3 mph SSW3.7 kmh SSW 3.5 mph5.6 kmh 26.70 in904.2 mb - 0.00 in0.0 mm 0.00 in0.0 mm
10:50 AM 49.0°F9.4°C 12.7°F-10.7°C 23% Calm Calm -- 26.70 in904.2 mb - 0.00 in0.0 mm 0.00 in0.0 mm
10:55 AM 49.0°F9.4°C 11.7°F-11.3°C 22% Calm Calm -- 26.70 in904.2 mb - 0.00 in0.0 mm 0.00 in0.0 mm
11:00 AM 48.0°F8.9°C 10.9°F-11.7°C 22% 2.3 mph NW3.7 kmh NW 3.5 mph5.6 kmh 26.70 in904.2 mb - 0.00 in0.0 mm 0.00 in0.0 mm
11:10 AM 49.6°F9.8°C 13.2°F-10.4°C 23% Calm Calm 1.2 mph1.9 kmh 26.70 in904.2 mb - 0.00 in0.0 mm 0.00 in0.0 mm
11:15 AM 50.0°F10.0°C 13.6°F-10.2°C 23% Calm Calm -- 26.70 in904.2 mb - 0.00 in0.0 mm 0.00 in0.0 mm
11:20 AM 49.0°F9.4°C 11.7°F-11.3°C 22% Calm Calm 1.2 mph1.9 kmh 26.70 in904.2 mb - 0.00 in0.0 mm 0.00 in0.0 mm
11:25 AM 50.0°F10.0°C 12.6°F-10.8°C 22% 2.3 mph S3.7 kmh S 3.5 mph5.6 kmh 26.71 in904.5 mb - 0.00 in0.0 mm 0.00 in0.0 mm
11:30 AM 51.0°F10.6°C 13.4°F-10.3°C 22% Calm Calm 1.2 mph1.9 kmh 26.70 in904.2 mb - 0.00 in0.0 mm 0.00 in0.0 mm
11:35 AM 51.0°F10.6°C 12.4°F-10.9°C 21% Calm Calm 1.2 mph1.9 kmh 26.69 in903.8 mb - 0.00 in0.0 mm 0.00 in0.0 mm
11:40 AM 51.0°F10.6°C 11.3°F-11.5°C 20% 2.3 mph W3.7 kmh W 2.3 mph3.7 kmh 26.69 in903.8 mb - 0.00 in0.0 mm 0.00 in0.0 mm
11:45 AM 51.0°F10.6°C 13.4°F-10.3°C 22% Calm Calm -- 26.69 in903.8 mb - 0.00 in0.0 mm 0.00 in0.0 mm
11:50 AM 51.0°F10.6°C 13.4°F-10.3°C 22% 1.2 mph WSW1.9 kmh WSW 2.3 mph3.7 kmh 26.69 in903.8 mb - 0.00 in0.0 mm 0.00 in0.0 mm
11:55 AM 51.3°F10.7°C 12.6°F-10.8°C 21% 1.2 mph WSW1.9 kmh WSW 3.5 mph5.6 kmh 26.69 in903.8 mb - 0.00 in0.0 mm 0.00 in0.0 mm
12:00 PM 52.0°F11.1°C 12.1°F-11.1°C 20% 2.3 mph WNW3.7 kmh WNW 3.5 mph5.6 kmh 26.68 in903.5 mb - 0.00 in0.0 mm 0.00 in0.0 mm
12:10 PM 53.0°F11.7°C 15.1°F-9.4°C 22% Calm Calm -- 26.66 in902.8 mb - 0.00 in0.0 mm 0.00 in0.0 mm
12:15 PM 52.0°F11.1°C 13.2°F-10.4°C 21% 1.2 mph NE1.9 kmh NE 1.2 mph1.9 kmh 26.66 in902.8 mb - 0.00 in0.0 mm 0.00 in0.0 mm
12:20 PM 53.0°F11.7°C 12.9°F-10.6°C 20% 1.2 mph SSE1.9 kmh SSE 2.3 mph3.7 kmh 26.66 in902.8 mb - 0.00 in0.0 mm 0.00 in0.0 mm
12:25 PM 52.0°F11.1°C 13.2°F-10.4°C 21% Calm Calm 1.2 mph1.9 kmh 26.66 in902.8 mb - 0.00 in0.0 mm 0.00 in0.0 mm
12:30 PM 53.0°F11.7°C 11.8°F-11.2°C 19% 2.3 mph N3.7 kmh N 3.5 mph5.6 kmh 26.66 in902.8 mb - 0.00 in0.0 mm 0.00 in0.0 mm
12:35 PM 53.0°F11.7°C 11.8°F-11.2°C 19% 3.5 mph SSE5.6 kmh SSE 6.9 mph11.1 kmh 26.66 in902.8 mb - 0.00 in0.0 mm 0.00 in0.0 mm
12:40 PM 53.0°F11.7°C 11.8°F-11.2°C 19% 3.5 mph S5.6 kmh S 6.9 mph11.1 kmh 26.67 in903.2 mb - 0.00 in0.0 mm 0.00 in0.0 mm
12:45 PM 52.0°F11.1°C 13.2°F-10.4°C 21% 1.2 mph NW1.9 kmh NW 1.2 mph1.9 kmh 26.66 in902.8 mb - 0.00 in0.0 mm 0.00 in0.0 mm
12:50 PM 53.0°F11.7°C 14.0°F-10.0°C 21% Calm Calm -- 26.66 in902.8 mb - 0.00 in0.0 mm 0.00 in0.0 mm
12:55 PM 53.0°F11.7°C 14.0°F-10.0°C 21% Calm Calm 1.2 mph1.9 kmh 26.65 in902.5 mb - 0.00 in0.0 mm 0.00 in0.0 mm
01:00 PM 52.0°F11.1°C 15.3°F-9.3°C 23% 1.2 mph NE1.9 kmh NE 2.3 mph3.7 kmh 26.65 in902.5 mb - 0.00 in0.0 mm 0.00 in0.0 mm
01:10 PM 52.0°F11.1°C 14.3°F-9.8°C 22% Calm Calm 1.2 mph1.9 kmh 26.66 in902.8 mb - 0.00 in0.0 mm 0.00 in0.0 mm
01:15 PM 52.0°F11.1°C 15.3°F-9.3°C 23% 1.2 mph ENE1.9 kmh ENE 1.2 mph1.9 kmh 26.65 in902.5 mb - 0.00 in0.0 mm 0.00 in0.0 mm
01:20 PM 52.0°F11.1°C 15.3°F-9.3°C 23% 1.2 mph E1.9 kmh E 2.3 mph3.7 kmh 26.65 in902.5 mb - 0.00 in0.0 mm 0.00 in0.0 mm
01:25 PM 52.0°F11.1°C 13.2°F-10.4°C 21% 2.3 mph W3.7 kmh W 2.3 mph3.7 kmh 26.65 in902.5 mb - 0.00 in0.0 mm 0.00 in0.0 mm
01:30 PM 53.0°F11.7°C 14.0°F-10.0°C 21% 2.3 mph SW3.7 kmh SW 3.5 mph5.6 kmh 26.64 in902.1 mb - 0.00 in0.0 mm 0.00 in0.0 mm
01:35 PM 52.0°F11.1°C 13.2°F-10.4°C 21% 1.2 mph N1.9 kmh N 2.3 mph3.7 kmh 26.65 in902.5 mb - 0.00 in0.0 mm 0.00 in0.0 mm
01:40 PM 52.0°F11.1°C 13.2°F-10.4°C 21% 1.2 mph NE1.9 kmh NE 1.2 mph1.9 kmh 26.65 in902.5 mb - 0.00 in0.0 mm 0.00 in0.0 mm
01:45 PM 53.0°F11.7°C 14.0°F-10.0°C 21% Calm Calm 1.2 mph1.9 kmh 26.66 in902.8 mb - 0.00 in0.0 mm 0.00 in0.0 mm
01:50 PM 53.0°F11.7°C 14.0°F-10.0°C 21% 3.5 mph S5.6 kmh S 3.5 mph5.6 kmh 26.65 in902.5 mb - 0.00 in0.0 mm 0.00 in0.0 mm
01:55 PM 53.0°F11.7°C 15.1°F-9.4°C 22% 1.2 mph SSW1.9 kmh SSW 3.5 mph5.6 kmh 26.64 in902.1 mb - 0.00 in0.0 mm 0.00 in0.0 mm
02:00 PM 53.0°F11.7°C 15.1°F-9.4°C 22% Calm Calm 2.3 mph3.7 kmh 26.64 in902.1 mb - 0.00 in0.0 mm 0.00 in0.0 mm
02:10 PM 52.0°F11.1°C 14.3°F-9.8°C 22% Calm Calm 1.2 mph1.9 kmh 26.64 in902.1 mb - 0.00 in0.0 mm 0.00 in0.0 mm
02:15 PM 53.0°F11.7°C 15.1°F-9.4°C 22% 1.2 mph S1.9 kmh S 2.3 mph3.7 kmh 26.64 in902.1 mb - 0.00 in0.0 mm 0.00 in0.0 mm
02:20 PM 53.0°F11.7°C 15.1°F-9.4°C 22% Calm Calm 1.2 mph1.9 kmh 26.63 in901.8 mb - 0.00 in0.0 mm 0.00 in0.0 mm
02:25 PM 52.0°F11.1°C 14.3°F-9.8°C 22% 1.2 mph ENE1.9 kmh ENE 1.2 mph1.9 kmh 26.63 in901.8 mb - 0.00 in0.0 mm 0.00 in0.0 mm
02:30 PM 53.0°F11.7°C 12.9°F-10.6°C 20% 3.5 mph WSW5.6 kmh WSW 3.5 mph5.6 kmh 26.64 in902.1 mb - 0.00 in0.0 mm 0.00 in0.0 mm
02:35 PM 53.0°F11.7°C 14.0°F-10.0°C 21% 2.3 mph WSW3.7 kmh WSW 3.5 mph5.6 kmh 26.63 in901.8 mb - 0.00 in0.0 mm 0.00 in0.0 mm
02:40 PM 53.0°F11.7°C 14.0°F-10.0°C 21% 2.3 mph WSW3.7 kmh WSW 3.5 mph5.6 kmh 26.63 in901.8 mb - 0.00 in0.0 mm 0.00 in0.0 mm
02:45 PM 53.0°F11.7°C 15.1°F-9.4°C 22% 1.2 mph NE1.9 kmh NE 1.2 mph1.9 kmh 26.63 in901.8 mb - 0.00 in0.0 mm 0.00 in0.0 mm
02:50 PM 53.0°F11.7°C 15.1°F-9.4°C 22% Calm Calm 1.2 mph1.9 kmh 26.63 in901.8 mb - 0.00 in0.0 mm 0.00 in0.0 mm
02:55 PM 54.0°F12.2°C 14.9°F-9.5°C 21% Calm Calm 1.2 mph1.9 kmh 26.63 in901.8 mb - 0.00 in0.0 mm 0.00 in0.0 mm
03:00 PM 53.0°F11.7°C 15.1°F-9.4°C 22% 1.2 mph S1.9 kmh S 2.3 mph3.7 kmh 26.63 in901.8 mb - 0.00 in0.0 mm 0.00 in0.0 mm
03:10 PM 52.0°F11.1°C 12.1°F-11.1°C 20% 3.5 mph SE5.6 kmh SE 3.5 mph5.6 kmh 26.64 in902.1 mb - 0.00 in0.0 mm 0.00 in0.0 mm
03:15 PM 52.0°F11.1°C 13.2°F-10.4°C 21% Calm Calm 1.2 mph1.9 kmh 26.64 in902.1 mb - 0.00 in0.0 mm 0.00 in0.0 mm
03:20 PM 52.4°F11.3°C 13.6°F-10.2°C 21% 1.2 mph SE1.9 kmh SE 3.5 mph5.6 kmh 26.64 in902.1 mb - 0.00 in0.0 mm 0.00 in0.0 mm
03:25 PM 53.0°F11.7°C 12.9°F-10.6°C 20% 2.3 mph S3.7 kmh S 3.5 mph5.6 kmh 26.64 in902.1 mb - 0.00 in0.0 mm 0.00 in0.0 mm
03:30 PM 53.0°F11.7°C 14.0°F-10.0°C 21% 1.2 mph NW1.9 kmh NW 1.2 mph1.9 kmh 26.64 in902.1 mb - 0.00 in0.0 mm 0.00 in0.0 mm
03:35 PM 53.0°F11.7°C 14.0°F-10.0°C 21% 1.2 mph ESE1.9 kmh ESE 2.3 mph3.7 kmh 26.64 in902.1 mb - 0.00 in0.0 mm 0.00 in0.0 mm
03:40 PM 52.0°F11.1°C 14.3°F-9.8°C 22% 2.3 mph E3.7 kmh E 2.3 mph3.7 kmh 26.64 in902.1 mb - 0.00 in0.0 mm 0.00 in0.0 mm
03:45 PM 52.0°F11.1°C 13.2°F-10.4°C 21% 1.2 mph SSE1.9 kmh SSE 2.3 mph3.7 kmh 26.63 in901.8 mb - 0.00 in0.0 mm 0.00 in0.0 mm
03:50 PM 51.0°F10.6°C 14.4°F-9.8°C 23% Calm Calm 1.2 mph1.9 kmh 26.64 in902.1 mb - 0.00 in0.0 mm 0.00 in0.0 mm
03:55 PM 50.0°F10.0°C 14.6°F-9.7°C 24% 2.3 mph E3.7 kmh E 2.3 mph3.7 kmh 26.64 in902.1 mb - 0.00 in0.0 mm 0.00 in0.0 mm
04:00 PM 50.6°F10.3°C 14.1°F-9.9°C 23% 2.3 mph E3.7 kmh E 3.5 mph5.6 kmh 26.64 in902.1 mb - 0.00 in0.0 mm 0.00 in0.0 mm
04:10 PM 51.0°F10.6°C 14.4°F-9.8°C 23% 1.2 mph ENE1.9 kmh ENE 1.2 mph1.9 kmh 26.64 in902.1 mb - 0.00 in0.0 mm 0.00 in0.0 mm
04:15 PM 51.0°F10.6°C 14.4°F-9.8°C 23% 1.2 mph NE1.9 kmh NE 1.2 mph1.9 kmh 26.64 in902.1 mb - 0.00 in0.0 mm 0.00 in0.0 mm
04:20 PM 51.0°F10.6°C 13.4°F-10.3°C 22% 2.3 mph SSW3.7 kmh SSW 2.3 mph3.7 kmh 26.65 in902.5 mb - 0.00 in0.0 mm 0.00 in0.0 mm
04:25 PM 51.0°F10.6°C 14.4°F-9.8°C 23% 2.3 mph WSW3.7 kmh WSW 3.5 mph5.6 kmh 26.65 in902.5 mb - 0.00 in0.0 mm 0.00 in0.0 mm
04:30 PM 49.0°F9.4°C 12.7°F-10.7°C 23% Calm Calm 1.2 mph1.9 kmh 26.66 in902.8 mb - 0.00 in0.0 mm 0.00 in0.0 mm
04:35 PM 49.0°F9.4°C 13.7°F-10.2°C 24% 1.2 mph ENE1.9 kmh ENE 1.2 mph1.9 kmh 26.65 in902.5 mb - 0.00 in0.0 mm 0.00 in0.0 mm
04:40 PM 48.3°F9.1°C 14.9°F-9.5°C 26% Calm Calm 1.2 mph1.9 kmh 26.66 in902.8 mb - 0.00 in0.0 mm 0.00 in0.0 mm
04:45 PM 47.8°F8.8°C 15.4°F-9.2°C 27% Calm Calm 1.2 mph1.9 kmh 26.66 in902.8 mb - 0.00 in0.0 mm 0.00 in0.0 mm
04:50 PM 46.0°F7.8°C 13.8°F-10.1°C 27% 1.2 mph NE1.9 kmh NE 1.2 mph1.9 kmh 26.66 in902.8 mb - 0.00 in0.0 mm 0.00 in0.0 mm
04:55 PM 43.0°F6.1°C 12.9°F-10.6°C 29% Calm Calm 1.2 mph1.9 kmh 26.67 in903.2 mb - 0.00 in0.0 mm 0.00 in0.0 mm
05:00 PM 42.0°F5.6°C 12.8°F-10.7°C 30% 3.5 mph SSW5.6 kmh SSW 5.8 mph9.3 kmh 26.67 in903.2 mb - 0.00 in0.0 mm 0.00 in0.0 mm
05:10 PM 42.0°F5.6°C 13.5°F-10.3°C 31% 1.2 mph E1.9 kmh E 3.5 mph5.6 kmh 26.68 in903.5 mb - 0.00 in0.0 mm 0.00 in0.0 mm
05:15 PM 42.0°F5.6°C 13.5°F-10.3°C 31% 1.2 mph NE1.9 kmh NE 1.2 mph1.9 kmh 26.69 in903.8 mb - 0.00 in0.0 mm 0.00 in0.0 mm
05:20 PM 42.0°F5.6°C 14.2°F-9.9°C 32% 2.3 mph ENE3.7 kmh ENE 3.5 mph5.6 kmh 26.69 in903.8 mb - 0.00 in0.0 mm 0.00 in0.0 mm
05:25 PM 42.0°F5.6°C 14.2°F-9.9°C 32% 1.2 mph NE1.9 kmh NE 3.5 mph5.6 kmh 26.69 in903.8 mb - 0.00 in0.0 mm 0.00 in0.0 mm
05:30 PM 42.0°F5.6°C 14.2°F-9.9°C 32% Calm Calm 1.2 mph1.9 kmh 26.69 in903.8 mb - 0.00 in0.0 mm 0.00 in0.0 mm
05:35 PM 41.0°F5.0°C 13.4°F-10.3°C 32% 1.2 mph NE1.9 kmh NE 1.2 mph1.9 kmh 26.70 in904.2 mb - 0.00 in0.0 mm 0.00 in0.0 mm
05:40 PM 41.0°F5.0°C 12.6°F-10.8°C 31% Calm Calm 1.2 mph1.9 kmh 26.71 in904.5 mb - 0.00 in0.0 mm 0.00 in0.0 mm
05:45 PM 41.0°F5.0°C 13.4°F-10.3°C 32% Calm Calm -- 26.70 in904.2 mb - 0.00 in0.0 mm 0.00 in0.0 mm
05:50 PM 41.0°F5.0°C 13.4°F-10.3°C 32% Calm Calm -- 26.71 in904.5 mb - 0.00 in0.0 mm 0.00 in0.0 mm
05:55 PM 40.0°F4.4°C 13.8°F-10.1°C 34% Calm Calm -- 26.72 in904.8 mb - 0.00 in0.0 mm 0.00 in0.0 mm
06:00 PM 40.0°F4.4°C 13.2°F-10.4°C 33% Calm Calm -- 26.72 in904.8 mb - 0.00 in0.0 mm 0.00 in0.0 mm
06:10 PM 40.0°F4.4°C 13.8°F-10.1°C 34% Calm Calm -- 26.72 in904.8 mb - 0.00 in0.0 mm 0.00 in0.0 mm
06:15 PM 40.0°F4.4°C 13.8°F-10.1°C 34% Calm Calm 1.2 mph1.9 kmh 26.72 in904.8 mb - 0.00 in0.0 mm 0.00 in0.0 mm
06:20 PM 40.0°F4.4°C 13.8°F-10.1°C 34% Calm Calm -- 26.72 in904.8 mb - 0.00 in0.0 mm 0.00 in0.0 mm
06:25 PM 40.0°F4.4°C 13.2°F-10.4°C 33% Calm Calm -- 26.73 in905.2 mb - 0.00 in0.0 mm 0.00 in0.0 mm
06:30 PM 40.0°F4.4°C 14.5°F-9.7°C 35% Calm Calm -- 26.73 in905.2 mb - 0.00 in0.0 mm 0.00 in0.0 mm
06:35 PM 39.0°F3.9°C 12.3°F-10.9°C 33% Calm Calm -- 26.74 in905.5 mb - 0.00 in0.0 mm 0.00 in0.0 mm
06:40 PM 39.0°F3.9°C 13.0°F-10.6°C 34% Calm Calm -- 26.74 in905.5 mb - 0.00 in0.0 mm 0.00 in0.0 mm
06:45 PM 39.0°F3.9°C 13.6°F-10.2°C 35% Calm Calm -- 26.74 in905.5 mb - 0.00 in0.0 mm 0.00 in0.0 mm
06:50 PM 39.0°F3.9°C 13.6°F-10.2°C 35% Calm Calm -- 26.74 in905.5 mb - 0.00 in0.0 mm 0.00 in0.0 mm
06:55 PM 39.0°F3.9°C 13.0°F-10.6°C 34% Calm Calm -- 26.75 in905.9 mb - 0.00 in0.0 mm 0.00 in0.0 mm
07:00 PM 39.0°F3.9°C 13.6°F-10.2°C 35% Calm Calm -- 26.75 in905.9 mb - 0.00 in0.0 mm 0.00 in0.0 mm
07:10 PM 39.0°F3.9°C 13.0°F-10.6°C 34% Calm Calm -- 26.76 in906.2 mb - 0.00 in0.0 mm 0.00 in0.0 mm
07:15 PM 39.0°F3.9°C 13.0°F-10.6°C 34% Calm Calm -- 26.76 in906.2 mb - 0.00 in0.0 mm 0.00 in0.0 mm
07:20 PM 38.0°F3.3°C 12.7°F-10.7°C 35% Calm Calm -- 26.76 in906.2 mb - 0.00 in0.0 mm 0.00 in0.0 mm
07:25 PM 38.0°F3.3°C 12.7°F-10.7°C 35% Calm Calm -- 26.78 in906.9 mb - 0.00 in0.0 mm 0.00 in0.0 mm
07:30 PM 38.0°F3.3°C 12.7°F-10.7°C 35% Calm Calm -- 26.77 in906.5 mb - 0.00 in0.0 mm 0.00 in0.0 mm
07:35 PM 38.0°F3.3°C 12.7°F-10.7°C 35% Calm Calm -- 26.77 in906.5 mb - 0.00 in0.0 mm 0.00 in0.0 mm
07:40 PM 38.0°F3.3°C 12.7°F-10.7°C 35% Calm Calm -- 26.77 in906.5 mb - 0.00 in0.0 mm 0.00 in0.0 mm
07:45 PM 37.0°F2.8°C 11.2°F-11.6°C 34% Calm Calm -- 26.78 in906.9 mb - 0.00 in0.0 mm 0.00 in0.0 mm
07:50 PM 38.0°F3.3°C 12.1°F-11.1°C 34% Calm Calm 1.2 mph1.9 kmh 26.78 in906.9 mb - 0.00 in0.0 mm 0.00 in0.0 mm
07:55 PM 37.0°F2.8°C 11.8°F-11.2°C 35% Calm Calm -- 26.78 in906.9 mb - 0.00 in0.0 mm 0.00 in0.0 mm
08:00 PM 37.0°F2.8°C 11.2°F-11.6°C 34% 3.5 mph E5.6 kmh E 5.8 mph9.3 kmh 26.78 in906.9 mb - 0.00 in0.0 mm 0.00 in0.0 mm
08:10 PM 37.0°F2.8°C 11.8°F-11.2°C 35% Calm Calm -- 26.79 in907.2 mb - 0.00 in0.0 mm 0.00 in0.0 mm
08:15 PM 37.0°F2.8°C 11.8°F-11.2°C 35% Calm Calm -- 26.79 in907.2 mb - 0.00 in0.0 mm 0.00 in0.0 mm
08:20 PM 37.0°F2.8°C 11.8°F-11.2°C 35% Calm Calm -- 26.80 in907.6 mb - 0.00 in0.0 mm 0.00 in0.0 mm
08:25 PM 37.0°F2.8°C 11.8°F-11.2°C 35% Calm Calm -- 26.80 in907.6 mb - 0.00 in0.0 mm 0.00 in0.0 mm
08:30 PM 37.0°F2.8°C 11.8°F-11.2°C 35% Calm Calm -- 26.80 in907.6 mb - 0.00 in0.0 mm 0.00 in0.0 mm
08:35 PM 37.0°F2.8°C 11.2°F-11.6°C 34% Calm Calm -- 26.80 in907.6 mb - 0.00 in0.0 mm 0.00 in0.0 mm
08:40 PM 37.0°F2.8°C 11.8°F-11.2°C 35% Calm Calm -- 26.80 in907.6 mb - 0.00 in0.0 mm 0.00 in0.0 mm
08:45 PM 37.0°F2.8°C 11.2°F-11.6°C 34% Calm Calm 1.2 mph1.9 kmh 26.80 in907.6 mb - 0.00 in0.0 mm 0.00 in0.0 mm
08:50 PM 37.0°F2.8°C 11.8°F-11.2°C 35% Calm Calm -- 26.80 in907.6 mb - 0.00 in0.0 mm 0.00 in0.0 mm
08:55 PM 37.0°F2.8°C 11.8°F-11.2°C 35% Calm Calm -- 26.80 in907.6 mb - 0.00 in0.0 mm 0.00 in0.0 mm
09:00 PM 37.0°F2.8°C 11.8°F-11.2°C 35% Calm Calm 1.2 mph1.9 kmh 26.80 in907.6 mb - 0.00 in0.0 mm 0.00 in0.0 mm
09:10 PM 37.0°F2.8°C 11.8°F-11.2°C 35% Calm Calm 1.2 mph1.9 kmh 26.81 in907.9 mb - 0.00 in0.0 mm 0.00 in0.0 mm
09:15 PM 37.0°F2.8°C 11.8°F-11.2°C 35% Calm Calm 1.2 mph1.9 kmh 26.81 in907.9 mb - 0.00 in0.0 mm 0.00 in0.0 mm
09:20 PM 37.0°F2.8°C 11.8°F-11.2°C 35% Calm Calm -- 26.81 in907.9 mb - 0.00 in0.0 mm 0.00 in0.0 mm
09:25 PM 37.0°F2.8°C 11.8°F-11.2°C 35% 1.2 mph E1.9 kmh E 3.5 mph5.6 kmh 26.82 in908.2 mb - 0.00 in0.0 mm 0.00 in0.0 mm
09:30 PM 37.0°F2.8°C 11.8°F-11.2°C 35% Calm Calm -- 26.81 in907.9 mb - 0.00 in0.0 mm 0.00 in0.0 mm
09:35 PM 37.0°F2.8°C 11.8°F-11.2°C 35% Calm Calm -- 26.82 in908.2 mb - 0.00 in0.0 mm 0.00 in0.0 mm
09:40 PM 36.0°F2.2°C 11.0°F-11.7°C 35% Calm Calm -- 26.82 in908.2 mb - 0.00 in0.0 mm 0.00 in0.0 mm
09:45 PM 36.0°F2.2°C 11.0°F-11.7°C 35% Calm Calm -- 26.82 in908.2 mb - 0.00 in0.0 mm 0.00 in0.0 mm
09:50 PM 36.0°F2.2°C 11.6°F-11.3°C 36% Calm Calm -- 26.83 in908.6 mb - 0.00 in0.0 mm 0.00 in0.0 mm
09:55 PM 36.0°F2.2°C 11.0°F-11.7°C 35% Calm Calm -- 26.82 in908.2 mb - 0.00 in0.0 mm 0.00 in0.0 mm
10:00 PM 36.0°F2.2°C 11.6°F-11.3°C 36% Calm Calm -- 26.82 in908.2 mb - 0.00 in0.0 mm 0.00 in0.0 mm
10:10 PM 35.0°F1.7°C 12.5°F-10.8°C 39% Calm Calm -- 26.83 in908.6 mb - 0.00 in0.0 mm 0.00 in0.0 mm
10:15 PM 35.0°F1.7°C 11.9°F-11.2°C 38% Calm Calm -- 26.83 in908.6 mb - 0.00 in0.0 mm 0.00 in0.0 mm
10:20 PM 35.0°F1.7°C 11.9°F-11.2°C 38% Calm Calm 1.2 mph1.9 kmh 26.84 in908.9 mb - 0.00 in0.0 mm 0.00 in0.0 mm
10:25 PM 35.0°F1.7°C 12.5°F-10.8°C 39% Calm Calm -- 26.83 in908.6 mb - 0.00 in0.0 mm 0.00 in0.0 mm
10:30 PM 35.0°F1.7°C 12.5°F-10.8°C 39% Calm Calm -- 26.84 in908.9 mb - 0.00 in0.0 mm 0.00 in0.0 mm
10:35 PM 35.0°F1.7°C 11.3°F-11.5°C 37% Calm Calm -- 26.84 in908.9 mb - 0.00 in0.0 mm 0.00 in0.0 mm
10:40 PM 35.0°F1.7°C 12.5°F-10.8°C 39% Calm Calm -- 26.84 in908.9 mb - 0.00 in0.0 mm 0.00 in0.0 mm
10:45 PM 35.0°F1.7°C 12.5°F-10.8°C 39% Calm Calm 1.2 mph1.9 kmh 26.84 in908.9 mb - 0.00 in0.0 mm 0.00 in0.0 mm
10:50 PM 34.8°F1.6°C 12.3°F-10.9°C 39% Calm Calm 1.2 mph1.9 kmh 26.84 in908.9 mb - 0.00 in0.0 mm 0.00 in0.0 mm
10:55 PM 34.0°F1.1°C 11.6°F-11.3°C 39% Calm Calm -- 26.84 in908.9 mb - 0.00 in0.0 mm 0.00 in0.0 mm
11:00 PM 34.0°F1.1°C 12.7°F-10.7°C 41% Calm Calm -- 26.85 in909.2 mb - 0.00 in0.0 mm 0.00 in0.0 mm
11:10 PM 34.0°F1.1°C 11.0°F-11.7°C 38% Calm Calm -- 26.85 in909.2 mb - 0.00 in0.0 mm 0.00 in0.0 mm
11:15 PM 34.0°F1.1°C 13.8°F-10.1°C 43% Calm Calm -- 26.84 in908.9 mb - 0.00 in0.0 mm 0.00 in0.0 mm
11:20 PM 33.0°F0.6°C 11.8°F-11.2°C 41% Calm Calm -- 26.86 in909.6 mb - 0.00 in0.0 mm 0.00 in0.0 mm
11:25 PM 33.0°F0.6°C 11.8°F-11.2°C 41% Calm Calm -- 26.85 in909.2 mb - 0.00 in0.0 mm 0.00 in0.0 mm
11:30 PM 32.0°F0.0°C 12.0°F-11.1°C 43% Calm Calm 1.2 mph1.9 kmh 26.85 in909.2 mb - 0.00 in0.0 mm 0.00 in0.0 mm
11:35 PM 32.6°F0.3°C 13.0°F-10.6°C 44% Calm Calm 1.2 mph1.9 kmh 26.86 in909.6 mb - 0.00 in0.0 mm 0.00 in0.0 mm
11:40 PM 33.0°F0.6°C 13.4°F-10.3°C 44% Calm Calm -- 26.86 in909.6 mb - 0.00 in0.0 mm 0.00 in0.0 mm
11:45 PM 32.0°F0.0°C 13.5°F-10.3°C 46% Calm Calm -- 26.86 in909.6 mb - 0.00 in0.0 mm 0.00 in0.0 mm
11:50 PM 31.0°F-0.6°C 12.6°F-10.8°C 46% Calm Calm -- 26.86 in909.6 mb - 0.00 in0.0 mm 0.00 in0.0 mm
11:55 PM 32.0°F0.0°C 13.0°F-10.6°C 45% Calm Calm -- 26.86 in909.6 mb - 0.00 in0.0 mm 0.00 in0.0 mm